createdAt,value
2024-05-09T00:00:40.850Z,0.00
2024-05-09T00:01:39.439Z,0.00
2024-05-09T00:02:39.425Z,0.00
2024-05-09T00:03:39.483Z,0.00
2024-05-09T00:04:39.447Z,0.00
2024-05-09T00:05:39.442Z,0.00
2024-05-09T00:06:39.372Z,0.00
2024-05-09T00:07:39.344Z,0.00
2024-05-09T00:08:39.343Z,0.00
2024-05-09T00:09:39.345Z,0.00
2024-05-09T00:10:40.537Z,0.00
2024-05-09T00:11:39.351Z,0.00
2024-05-09T00:12:39.305Z,0.00
2024-05-09T00:13:39.292Z,0.00
2024-05-09T00:14:39.298Z,0.00
2024-05-09T00:15:39.320Z,0.00
2024-05-09T00:16:39.262Z,0.00
2024-05-09T00:17:39.632Z,0.00
2024-05-09T00:18:39.316Z,0.00
2024-05-09T00:19:39.394Z,0.00
2024-05-09T00:20:41.066Z,0.00
2024-05-09T00:21:39.235Z,0.00
2024-05-09T00:22:39.192Z,0.00
2024-05-09T00:23:39.342Z,0.00
2024-05-09T00:24:39.196Z,0.00
2024-05-09T00:25:39.158Z,0.00
2024-05-09T00:26:39.164Z,0.00
2024-05-09T00:27:39.147Z,0.00
2024-05-09T00:28:39.156Z,0.00
2024-05-09T00:29:39.173Z,0.00
2024-05-09T00:30:39.147Z,0.00
2024-05-09T00:31:39.115Z,0.00
2024-05-09T00:32:39.209Z,0.00
2024-05-09T00:33:39.286Z,0.00
2024-05-09T00:34:39.080Z,0.00
2024-05-09T00:35:39.368Z,0.00
2024-05-09T00:36:39.038Z,0.00
2024-05-09T00:37:39.049Z,0.00
2024-05-09T00:38:39.060Z,0.00
2024-05-09T00:39:39.017Z,0.00
2024-05-09T00:40:41.672Z,0.00
2024-05-09T00:41:39.029Z,0.00
2024-05-09T00:42:38.996Z,0.00
2024-05-09T00:43:38.995Z,0.00
2024-05-09T00:44:39.029Z,0.00
2024-05-09T00:45:39.025Z,0.00
2024-05-09T00:46:38.958Z,0.00
2024-05-09T00:47:39.016Z,0.00
2024-05-09T00:48:39.083Z,0.00
2024-05-09T00:49:38.977Z,0.00
2024-05-09T00:50:39.139Z,0.00
2024-05-09T00:51:38.970Z,0.00
2024-05-09T00:52:38.876Z,0.00
2024-05-09T00:53:39.049Z,0.00
2024-05-09T00:54:38.848Z,0.00
2024-05-09T00:55:38.976Z,0.00
2024-05-09T00:56:39.550Z,0.00
2024-05-09T00:57:38.815Z,0.00
2024-05-09T00:58:38.828Z,0.00
2024-05-09T00:59:38.900Z,0.00
2024-05-09T01:00:40.820Z,0.00
2024-05-09T01:01:38.980Z,0.00
2024-05-09T01:02:38.874Z,0.00
2024-05-09T01:03:39.033Z,0.00
2024-05-09T01:04:38.778Z,0.00
2024-05-09T01:05:38.947Z,0.00
2024-05-09T01:06:38.721Z,0.00
2024-05-09T01:07:38.747Z,0.00
2024-05-09T01:08:38.893Z,0.00
2024-05-09T01:09:38.738Z,0.00
2024-05-09T01:10:39.543Z,0.00
2024-05-09T01:11:38.840Z,0.00
2024-05-09T01:12:38.743Z,0.00
2024-05-09T01:13:38.683Z,0.00
2024-05-09T01:14:38.699Z,0.00
2024-05-09T01:15:38.626Z,0.00
2024-05-09T01:16:38.625Z,0.00
2024-05-09T01:17:38.779Z,0.00
2024-05-09T01:18:38.687Z,0.00
2024-05-09T01:19:38.865Z,0.00
2024-05-09T01:20:42.430Z,0.00
2024-05-09T01:21:38.571Z,0.00
2024-05-09T01:22:38.573Z,0.00
2024-05-09T01:23:38.647Z,0.00
2024-05-09T01:24:38.574Z,0.00
2024-05-09T01:25:38.572Z,0.00
2024-05-09T01:26:38.580Z,0.00
2024-05-09T01:27:38.536Z,0.00
2024-05-09T01:28:38.507Z,0.00
2024-05-09T01:29:38.577Z,0.00
2024-05-09T01:30:38.869Z,0.00
2024-05-09T01:31:38.500Z,0.00
2024-05-09T01:32:38.549Z,0.00
2024-05-09T01:33:38.774Z,1.00
2024-05-09T01:34:38.436Z,0.00
2024-05-09T01:35:38.530Z,0.00
2024-05-09T01:36:38.375Z,1.00
2024-05-09T01:37:38.401Z,0.00
2024-05-09T01:38:38.440Z,0.00
2024-05-09T01:39:38.419Z,0.00
2024-05-09T01:40:40.142Z,0.00
2024-05-09T01:41:38.432Z,0.00
2024-05-09T01:42:38.372Z,0.00
2024-05-09T01:43:38.338Z,0.00
2024-05-09T01:44:38.420Z,0.00
2024-05-09T01:45:38.360Z,0.00
2024-05-09T01:46:38.316Z,0.00
2024-05-09T01:47:38.475Z,0.00
2024-05-09T01:48:38.407Z,0.00
2024-05-09T01:49:38.330Z,0.00
2024-05-09T01:50:41.455Z,0.00
2024-05-09T01:51:38.283Z,0.00
2024-05-09T01:52:38.259Z,0.00
2024-05-09T01:53:38.319Z,0.00
2024-05-09T01:54:38.240Z,0.00
2024-05-09T01:55:38.387Z,0.00
2024-05-09T01:56:38.215Z,0.00
2024-05-09T01:57:38.197Z,0.00
2024-05-09T01:58:38.178Z,0.00
2024-05-09T01:59:38.224Z,0.00
2024-05-09T02:00:41.424Z,0.00
2024-05-09T02:01:55.776Z,0.00
2024-05-09T02:02:38.283Z,0.00
2024-05-09T02:03:38.284Z,0.00
2024-05-09T02:04:38.181Z,0.00
2024-05-09T02:05:38.248Z,0.00
2024-05-09T02:06:38.140Z,0.00
2024-05-09T02:07:38.100Z,0.00
2024-05-09T02:08:38.190Z,0.00
2024-05-09T02:09:38.100Z,0.00
2024-05-09T02:10:38.080Z,0.00
2024-05-09T02:11:38.134Z,0.00
2024-05-09T02:12:38.052Z,0.00
2024-05-09T02:13:38.036Z,0.00
2024-05-09T02:14:38.044Z,0.00
2024-05-09T02:15:38.040Z,0.00
2024-05-09T02:16:37.993Z,0.00
2024-05-09T02:17:38.222Z,0.00
2024-05-09T02:18:38.135Z,0.00
2024-05-09T02:19:37.991Z,0.00
2024-05-09T02:20:38.030Z,0.00
2024-05-09T02:21:37.984Z,0.00
2024-05-09T02:22:37.940Z,0.00
2024-05-09T02:23:38.032Z,0.00
2024-05-09T02:24:37.930Z,0.00
2024-05-09T02:25:37.929Z,0.00
2024-05-09T02:26:37.902Z,0.00
2024-05-09T02:27:37.898Z,0.00
2024-05-09T02:28:37.892Z,0.00
2024-05-09T02:29:37.998Z,0.00
2024-05-09T02:30:40.962Z,0.00
2024-05-09T02:31:37.850Z,0.00
2024-05-09T02:32:38.081Z,0.00
2024-05-09T02:33:38.173Z,0.00
2024-05-09T02:34:37.849Z,0.00
2024-05-09T02:35:37.876Z,0.00
2024-05-09T02:36:37.807Z,0.00
2024-05-09T02:37:37.779Z,0.00
2024-05-09T02:38:37.877Z,0.00
2024-05-09T02:39:37.780Z,0.00
2024-05-09T02:40:39.470Z,0.00
2024-05-09T02:41:37.809Z,0.00
2024-05-09T02:42:37.736Z,0.00
2024-05-09T02:43:37.709Z,0.00
2024-05-09T02:44:37.785Z,0.00
2024-05-09T02:45:37.720Z,0.00
2024-05-09T02:46:37.685Z,0.00
2024-05-09T02:47:37.860Z,0.00
2024-05-09T02:48:37.759Z,0.00
2024-05-09T02:49:37.712Z,0.00
2024-05-09T02:50:39.709Z,0.00
2024-05-09T02:51:37.647Z,0.00
2024-05-09T02:52:37.627Z,0.00
2024-05-09T02:53:37.716Z,0.00
2024-05-09T02:54:37.612Z,0.00
2024-05-09T02:55:37.623Z,0.00
2024-05-09T02:56:37.637Z,0.00
2024-05-09T02:57:37.582Z,0.00
2024-05-09T02:58:37.573Z,0.00
2024-05-09T02:59:37.591Z,0.00
2024-05-09T03:00:40.780Z,0.00
2024-05-09T03:01:37.614Z,0.00
2024-05-09T03:02:37.595Z,0.00
2024-05-09T03:03:37.762Z,0.00
2024-05-09T03:04:44.318Z,0.00
2024-05-09T03:05:37.624Z,0.00
2024-05-09T03:06:37.502Z,0.00
2024-05-09T03:07:37.587Z,0.00
2024-05-09T03:08:37.587Z,0.00
2024-05-09T03:09:37.483Z,0.00
2024-05-09T03:10:38.992Z,0.00
2024-05-09T03:11:37.520Z,0.00
2024-05-09T03:12:39.207Z,1.00
2024-05-09T03:13:37.452Z,0.00
2024-05-09T03:14:37.419Z,1.00
2024-05-09T03:15:37.458Z,1.00
2024-05-09T03:16:37.340Z,1.00
2024-05-09T03:17:37.526Z,1.00
2024-05-09T03:18:37.487Z,2.00
2024-05-09T03:19:37.522Z,2.00
2024-05-09T03:20:37.516Z,1.00
2024-05-09T03:21:37.291Z,1.00
2024-05-09T03:22:37.268Z,2.00
2024-05-09T03:23:37.270Z,1.00
2024-05-09T03:24:37.256Z,1.00
2024-05-09T03:25:37.251Z,7.00
2024-05-09T03:26:37.272Z,5.00
2024-05-09T03:27:37.224Z,2.00
2024-05-09T03:28:37.205Z,1.00
2024-05-09T03:29:37.220Z,2.00
2024-05-09T03:30:41.874Z,4.00
2024-05-09T03:31:37.207Z,8.00
2024-05-09T03:32:37.326Z,7.00
2024-05-09T03:33:37.685Z,7.00
2024-05-09T03:34:37.140Z,6.00
2024-05-09T03:35:37.175Z,11.00
2024-05-09T03:36:37.104Z,9.00
2024-05-09T03:37:37.107Z,13.00
2024-05-09T03:38:37.285Z,13.00
2024-05-09T03:39:37.090Z,17.00
2024-05-09T03:40:37.078Z,18.00
2024-05-09T03:41:37.260Z,20.00
2024-05-09T03:42:37.050Z,17.00
2024-05-09T03:43:37.041Z,24.00
2024-05-09T03:44:37.121Z,26.00
2024-05-09T03:45:37.017Z,32.00
2024-05-09T03:46:37.009Z,28.00
2024-05-09T03:47:37.165Z,27.00
2024-05-09T03:48:37.060Z,34.00
2024-05-09T03:49:37.080Z,40.00
2024-05-09T03:50:37.563Z,36.00
2024-05-09T03:51:36.955Z,43.00
2024-05-09T03:52:36.957Z,46.00
2024-05-09T03:53:36.943Z,52.00
2024-05-09T03:54:36.937Z,57.00
2024-05-09T03:55:36.911Z,58.00
2024-05-09T03:56:36.981Z,64.00
2024-05-09T03:57:36.898Z,64.00
2024-05-09T03:58:36.880Z,72.00
2024-05-09T03:59:37.006Z,76.00
2024-05-09T04:00:39.404Z,76.00
2024-05-09T04:01:36.952Z,82.00
2024-05-09T04:02:36.972Z,85.00
2024-05-09T04:03:36.967Z,92.00
2024-05-09T04:04:36.959Z,99.00
2024-05-09T04:05:36.907Z,102.00
2024-05-09T04:06:36.812Z,107.00
2024-05-09T04:07:36.793Z,110.00
2024-05-09T04:08:36.823Z,124.00
2024-05-09T04:09:36.795Z,131.00
2024-05-09T04:10:36.762Z,137.00
2024-05-09T04:11:36.845Z,142.00
2024-05-09T04:12:36.767Z,144.00
2024-05-09T04:13:36.720Z,148.00
2024-05-09T04:14:36.770Z,153.00
2024-05-09T04:15:36.701Z,159.00
2024-05-09T04:16:36.694Z,167.00
2024-05-09T04:17:36.860Z,172.00
2024-05-09T04:18:36.766Z,177.00
2024-05-09T04:19:36.729Z,185.00
2024-05-09T04:20:39.742Z,194.00
2024-05-09T04:21:36.635Z,202.00
2024-05-09T04:22:36.649Z,207.00
2024-05-09T04:23:36.701Z,214.00
2024-05-09T04:24:36.604Z,221.00
2024-05-09T04:25:36.673Z,228.00
2024-05-09T04:26:36.636Z,235.00
2024-05-09T04:27:36.581Z,244.00
2024-05-09T04:28:36.569Z,251.00
2024-05-09T04:29:36.587Z,257.00
2024-05-09T04:30:39.630Z,263.00
2024-05-09T04:31:36.559Z,270.00
2024-05-09T04:32:36.600Z,277.00
2024-05-09T04:33:36.668Z,285.00
2024-05-09T04:34:36.543Z,290.00
2024-05-09T04:35:36.609Z,299.00
2024-05-09T04:36:36.513Z,305.00
2024-05-09T04:37:36.496Z,312.00
2024-05-09T04:38:36.606Z,319.00
2024-05-09T04:39:36.505Z,324.00
2024-05-09T04:40:37.557Z,327.00
2024-05-09T04:41:36.535Z,331.00
2024-05-09T04:42:36.427Z,339.00
2024-05-09T04:43:36.411Z,345.00
2024-05-09T04:44:36.494Z,358.00
2024-05-09T04:45:36.407Z,361.00
2024-05-09T04:46:36.404Z,367.00
2024-05-09T04:47:36.445Z,377.00
2024-05-09T04:48:36.525Z,380.00
2024-05-09T04:49:36.417Z,381.00
2024-05-09T04:50:38.863Z,387.00
2024-05-09T04:51:36.349Z,395.00
2024-05-09T04:52:36.313Z,400.00
2024-05-09T04:53:36.430Z,407.00
2024-05-09T04:54:36.866Z,414.00
2024-05-09T04:55:36.348Z,414.00
2024-05-09T04:56:36.395Z,419.00
2024-05-09T04:57:36.287Z,422.00
2024-05-09T04:58:36.258Z,429.00
2024-05-09T04:59:36.318Z,431.00
2024-05-09T05:00:38.224Z,436.00
2024-05-09T05:01:36.318Z,440.00
2024-05-09T05:02:36.264Z,446.00
2024-05-09T05:03:36.299Z,448.00
2024-05-09T05:04:36.297Z,454.00
2024-05-09T05:05:36.262Z,457.00
2024-05-09T05:06:36.225Z,464.00
2024-05-09T05:07:36.163Z,469.00
2024-05-09T05:08:36.250Z,472.00
2024-05-09T05:09:36.142Z,472.00
2024-05-09T05:10:36.974Z,476.00
2024-05-09T05:11:36.223Z,482.00
2024-05-09T05:12:36.187Z,486.00
2024-05-09T05:13:38.658Z,485.00
2024-05-09T05:14:36.168Z,489.00
2024-05-09T05:15:36.076Z,495.00
2024-05-09T05:16:36.087Z,498.00
2024-05-09T05:17:36.431Z,501.00
2024-05-09T05:18:36.181Z,505.00
2024-05-09T05:19:36.182Z,506.00
2024-05-09T05:20:36.093Z,510.00
2024-05-09T05:21:36.018Z,515.00
2024-05-09T05:22:36.031Z,518.00
2024-05-09T05:23:36.117Z,517.00
2024-05-09T05:24:35.986Z,522.00
2024-05-09T05:25:35.975Z,528.00
2024-05-09T05:26:36.042Z,536.00
2024-05-09T05:27:35.978Z,529.00
2024-05-09T05:28:35.958Z,521.00
2024-05-09T05:29:36.007Z,539.00
2024-05-09T05:30:35.926Z,539.00
2024-05-09T05:31:35.951Z,539.00
2024-05-09T05:32:36.071Z,538.00
2024-05-09T05:33:35.956Z,542.00
2024-05-09T05:34:35.889Z,552.00
2024-05-09T05:35:35.931Z,554.00
2024-05-09T05:36:35.860Z,561.00
2024-05-09T05:37:35.851Z,569.00
2024-05-09T05:38:35.954Z,559.00
2024-05-09T05:39:35.843Z,557.00
2024-05-09T05:40:37.911Z,565.00
2024-05-09T05:41:35.883Z,568.00
2024-05-09T05:42:35.804Z,576.00
2024-05-09T05:43:35.792Z,573.00
2024-05-09T05:44:35.834Z,597.00
2024-05-09T05:45:35.774Z,580.00
2024-05-09T05:46:35.781Z,578.00
2024-05-09T05:47:35.882Z,582.00
2024-05-09T05:48:35.827Z,581.00
2024-05-09T05:49:35.830Z,582.00
2024-05-09T05:50:37.794Z,584.00
2024-05-09T05:51:35.737Z,584.00
2024-05-09T05:52:35.700Z,624.00
2024-05-09T05:53:35.867Z,602.00
2024-05-09T05:54:35.682Z,578.00
2024-05-09T05:55:35.678Z,568.00
2024-05-09T05:56:35.778Z,585.00
2024-05-09T05:57:35.648Z,635.00
2024-05-09T05:58:35.668Z,572.00
2024-05-09T05:59:35.690Z,604.00
2024-05-09T06:00:39.008Z,601.00
2024-05-09T06:01:35.642Z,636.00
2024-05-09T06:02:35.692Z,619.00
2024-05-09T06:03:35.636Z,558.00
2024-05-09T06:04:35.629Z,561.00
2024-05-09T06:05:35.783Z,613.00
2024-05-09T06:06:35.617Z,623.00
2024-05-09T06:07:35.567Z,629.00
2024-05-09T06:08:35.586Z,615.00
2024-05-09T06:09:35.511Z,636.00
2024-05-09T06:10:39.342Z,633.00
2024-05-09T06:11:35.601Z,638.00
2024-05-09T06:12:35.493Z,642.00
2024-05-09T06:13:35.479Z,649.00
2024-05-09T06:14:35.583Z,655.00
2024-05-09T06:15:35.490Z,655.00
2024-05-09T06:16:35.476Z,650.00
2024-05-09T06:17:35.692Z,650.00
2024-05-09T06:18:35.787Z,657.00
2024-05-09T06:19:35.538Z,658.00
2024-05-09T06:20:37.871Z,660.00
2024-05-09T06:21:35.421Z,659.00
2024-05-09T06:22:35.438Z,661.00
2024-05-09T06:23:35.540Z,660.00
2024-05-09T06:24:35.437Z,663.00
2024-05-09T06:25:35.809Z,657.00
2024-05-09T06:26:35.471Z,665.00
2024-05-09T06:27:35.321Z,667.00
2024-05-09T06:28:35.360Z,668.00
2024-05-09T06:29:35.351Z,675.00
2024-05-09T06:30:39.679Z,673.00
2024-05-09T06:31:35.360Z,675.00
2024-05-09T06:32:35.519Z,671.00
2024-05-09T06:33:35.486Z,683.00
2024-05-09T06:34:35.360Z,677.00
2024-05-09T06:35:35.514Z,674.00
2024-05-09T06:36:35.256Z,687.00
2024-05-09T06:37:35.255Z,705.00
2024-05-09T06:38:35.356Z,670.00
2024-05-09T06:39:35.209Z,688.00
2024-05-09T06:40:38.535Z,679.00
2024-05-09T06:41:35.288Z,682.00
2024-05-09T06:42:35.188Z,692.00
2024-05-09T06:43:35.189Z,686.00
2024-05-09T06:44:35.278Z,691.00
2024-05-09T06:45:35.151Z,721.00
2024-05-09T06:46:35.154Z,682.00
2024-05-09T06:47:35.272Z,688.00
2024-05-09T06:48:35.382Z,700.00
2024-05-09T06:49:35.139Z,710.00
2024-05-09T06:50:38.002Z,705.00
2024-05-09T06:51:35.082Z,705.00
2024-05-09T06:52:35.076Z,701.00
2024-05-09T06:53:35.212Z,707.00
2024-05-09T06:54:35.048Z,711.00
2024-05-09T06:55:35.037Z,707.00
2024-05-09T06:56:35.056Z,709.00
2024-05-09T06:57:35.021Z,704.00
2024-05-09T06:58:35.032Z,712.00
2024-05-09T06:59:35.065Z,723.00
2024-05-09T07:00:39.317Z,705.00
2024-05-09T07:01:35.023Z,726.00
2024-05-09T07:02:35.116Z,734.00
2024-05-09T07:03:35.179Z,699.00
2024-05-09T07:04:35.036Z,744.00
2024-05-09T07:05:34.974Z,705.00
2024-05-09T07:06:34.924Z,727.00
2024-05-09T07:07:34.912Z,741.00
2024-05-09T07:08:35.072Z,745.00
2024-05-09T07:09:34.902Z,736.00
2024-05-09T07:10:36.181Z,741.00
2024-05-09T07:11:34.957Z,765.00
2024-05-09T07:12:34.975Z,748.00
2024-05-09T07:13:34.847Z,741.00
2024-05-09T07:14:36.928Z,760.00
2024-05-09T07:15:34.860Z,754.00
2024-05-09T07:16:34.823Z,717.00
2024-05-09T07:17:34.963Z,745.00
2024-05-09T07:18:34.933Z,752.00
2024-05-09T07:19:34.845Z,745.00
2024-05-09T07:20:35.325Z,758.00
2024-05-09T07:21:34.763Z,750.00
2024-05-09T07:22:34.755Z,751.00
2024-05-09T07:23:34.924Z,764.00
2024-05-09T07:24:34.777Z,750.00
2024-05-09T07:25:34.731Z,763.00
2024-05-09T07:26:34.820Z,766.00
2024-05-09T07:27:34.698Z,762.00
2024-05-09T07:28:34.712Z,759.00
2024-05-09T07:29:37.873Z,773.00
2024-05-09T07:30:35.245Z,763.00
2024-05-09T07:31:34.692Z,751.00
2024-05-09T07:32:34.749Z,749.00
2024-05-09T07:33:34.668Z,773.00
2024-05-09T07:34:34.756Z,756.00
2024-05-09T07:35:34.881Z,764.00
2024-05-09T07:36:34.604Z,768.00
2024-05-09T07:37:34.583Z,764.00
2024-05-09T07:38:34.584Z,768.00
2024-05-09T07:39:34.571Z,767.00
2024-05-09T07:40:36.651Z,774.00
2024-05-09T07:41:34.606Z,790.00
2024-05-09T07:42:34.538Z,778.00
2024-05-09T07:43:34.522Z,793.00
2024-05-09T07:44:34.575Z,788.00
2024-05-09T07:48:57.855Z,784.00
2024-05-09T07:53:20.363Z,790.00
2024-05-09T07:53:46.214Z,820.00
2024-05-09T07:53:57.256Z,797.00
2024-05-09T07:54:53.476Z,791.00
2024-05-09T07:55:53.490Z,787.00
2024-05-09T07:56:53.518Z,791.00
2024-05-09T07:57:53.320Z,795.00
2024-05-09T07:58:53.353Z,793.00
2024-05-09T07:59:53.216Z,794.00
2024-05-09T08:00:53.328Z,887.00
2024-05-09T08:01:53.330Z,850.00
2024-05-09T08:02:53.244Z,765.00
2024-05-09T08:03:53.565Z,707.00
2024-05-09T08:04:53.291Z,763.00
2024-05-09T08:05:53.371Z,807.00
2024-05-09T08:06:53.194Z,830.00
2024-05-09T08:07:53.162Z,817.00
2024-05-09T08:08:53.147Z,799.00
2024-05-09T08:09:53.293Z,822.00
2024-05-09T08:10:53.241Z,833.00
2024-05-09T08:11:53.164Z,824.00
2024-05-09T08:12:53.331Z,816.00
2024-05-09T08:13:53.068Z,825.00
2024-05-09T08:14:53.077Z,815.00
2024-05-09T08:15:53.183Z,810.00
2024-05-09T08:16:53.146Z,824.00
2024-05-09T08:17:53.181Z,815.00
2024-05-09T08:18:53.119Z,810.00
2024-05-09T08:19:53.040Z,803.00
2024-05-09T08:20:52.998Z,818.00
2024-05-09T08:21:52.981Z,818.00
2024-05-09T08:22:53.089Z,814.00
2024-05-09T08:23:52.985Z,750.00
2024-05-09T08:24:53.117Z,824.00
2024-05-09T08:25:52.971Z,811.00
2024-05-09T08:26:52.921Z,818.00
2024-05-09T08:27:53.083Z,818.00
2024-05-09T08:28:52.907Z,809.00
2024-05-09T08:29:52.928Z,810.00
2024-05-09T08:30:53.012Z,813.00
2024-05-09T08:31:52.900Z,795.00
2024-05-09T08:32:52.998Z,794.00
2024-05-09T08:33:53.171Z,1322.00
2024-05-09T08:34:52.899Z,566.00
2024-05-09T08:35:52.847Z,553.00
2024-05-09T08:36:52.876Z,777.00
2024-05-09T08:37:52.844Z,774.00
2024-05-09T08:38:52.823Z,791.00
2024-05-09T08:39:52.898Z,773.00
2024-05-09T08:40:52.802Z,823.00
2024-05-09T08:41:52.756Z,794.00
2024-05-09T08:42:52.962Z,804.00
2024-05-09T08:43:52.742Z,800.00
2024-05-09T08:44:52.741Z,813.00
2024-05-09T08:45:52.759Z,798.00
2024-05-09T08:46:52.731Z,809.00
2024-05-09T08:47:52.859Z,812.00
2024-05-09T08:48:52.890Z,811.00
2024-05-09T08:49:52.833Z,804.00
2024-05-09T08:50:52.906Z,819.00
2024-05-09T08:51:52.710Z,805.00
2024-05-09T08:52:52.711Z,850.00
2024-05-09T08:53:52.698Z,800.00
2024-05-09T08:54:52.760Z,811.00
2024-05-09T08:55:52.725Z,765.00
2024-05-09T08:56:52.669Z,750.00
2024-05-09T08:57:52.780Z,738.00
2024-05-09T09:00:35.592Z,823.00
2024-05-09T09:01:28.054Z,840.00
2024-05-09T09:02:28.110Z,862.00
2024-05-09T09:03:28.065Z,708.00
2024-05-09T09:04:27.974Z,812.00
2024-05-09T09:05:28.116Z,809.00
2024-05-09T09:06:27.984Z,803.00
2024-05-09T09:07:27.879Z,811.00
2024-05-09T09:08:27.852Z,805.00
2024-05-09T09:09:27.931Z,809.00
2024-05-09T09:10:32.068Z,818.00
2024-05-09T09:11:27.886Z,814.00
2024-05-09T09:12:27.866Z,817.00
2024-05-09T09:13:27.798Z,818.00
2024-05-09T09:14:27.805Z,815.00
2024-05-09T09:15:28.030Z,806.00
2024-05-09T09:16:27.927Z,822.00
2024-05-09T09:17:27.789Z,792.00
2024-05-09T09:18:28.099Z,806.00
2024-05-09T09:19:27.811Z,809.00
2024-05-09T09:20:35.361Z,810.00
2024-05-09T09:21:27.732Z,823.00
2024-05-09T09:22:27.759Z,811.00
2024-05-09T09:23:27.710Z,810.00
2024-05-09T09:24:27.716Z,805.00
2024-05-09T09:25:27.672Z,818.00
2024-05-09T09:26:27.635Z,826.00
2024-05-09T09:27:27.687Z,825.00
2024-05-09T09:28:27.629Z,819.00
2024-05-09T09:29:27.642Z,823.00
2024-05-09T09:30:35.263Z,823.00
2024-05-09T09:31:27.747Z,810.00
2024-05-09T09:32:27.665Z,824.00
2024-05-09T09:33:27.974Z,845.00
2024-05-09T09:34:27.733Z,845.00
2024-05-09T09:35:27.563Z,845.00
2024-05-09T09:36:27.650Z,822.00
2024-05-09T09:37:27.596Z,824.00
2024-05-09T09:38:27.529Z,842.00
2024-05-09T09:39:27.553Z,860.00
2024-05-09T09:40:32.141Z,846.00
2024-05-09T09:41:27.503Z,826.00
2024-05-09T09:42:27.575Z,825.00
2024-05-09T09:43:27.496Z,820.00
2024-05-09T09:44:27.465Z,812.00
2024-05-09T09:45:27.483Z,819.00
2024-05-09T09:46:27.529Z,823.00
2024-05-09T09:47:27.540Z,843.00
2024-05-09T09:48:27.478Z,864.00
2024-05-09T09:49:27.496Z,881.00
2024-05-09T09:50:33.735Z,897.00
2024-05-09T09:51:27.444Z,912.00
2024-05-09T09:52:27.378Z,857.00
2024-05-09T09:53:27.392Z,860.00
2024-05-09T09:54:27.413Z,879.00
2024-05-09T09:55:27.410Z,910.00
2024-05-09T09:56:27.340Z,922.00
2024-05-09T09:57:27.418Z,865.00
2024-05-09T09:58:27.537Z,973.00
2024-05-09T09:59:27.314Z,1025.00
2024-05-09T10:00:32.522Z,997.00
2024-05-09T10:01:27.376Z,990.00
2024-05-09T10:02:27.336Z,1028.00
2024-05-09T10:03:27.594Z,1022.00
2024-05-09T10:04:27.304Z,1011.00
2024-05-09T10:05:27.642Z,989.00
2024-05-09T10:06:27.336Z,965.00
2024-05-09T10:07:27.212Z,2413.00
2024-05-09T10:08:27.249Z,424.00
2024-05-09T10:09:27.282Z,1878.00
2024-05-09T10:10:32.093Z,919.00
2024-05-09T10:11:27.196Z,1026.00
2024-05-09T10:12:27.224Z,393.00
2024-05-09T10:13:27.204Z,1430.00
2024-05-09T10:14:27.156Z,639.00
2024-05-09T10:15:27.173Z,1503.00
2024-05-09T10:16:27.219Z,558.00
2024-05-09T10:17:27.202Z,1096.00
2024-05-09T10:18:29.426Z,1099.00
2024-05-09T10:19:27.203Z,1038.00
2024-05-09T10:20:30.911Z,995.00
2024-05-09T10:21:27.091Z,1046.00
2024-05-09T10:22:27.104Z,1041.00
2024-05-09T10:23:27.044Z,990.00
2024-05-09T10:24:27.062Z,1127.00
2024-05-09T10:25:27.061Z,1245.00
2024-05-09T10:26:27.001Z,1154.00
2024-05-09T10:27:27.022Z,1113.00
2024-05-09T10:28:27.008Z,1145.00
2024-05-09T10:29:27.040Z,1297.00
2024-05-09T10:30:33.994Z,1253.00
2024-05-09T10:31:27.001Z,1294.00
2024-05-09T10:32:27.046Z,1286.00
2024-05-09T10:33:27.104Z,1300.00
2024-05-09T10:34:27.049Z,1305.00
2024-05-09T10:35:26.966Z,1221.00
2024-05-09T10:36:26.966Z,1230.00
2024-05-09T10:37:27.020Z,1265.00
2024-05-09T10:38:26.893Z,1252.00
2024-05-09T10:39:26.865Z,1282.00
2024-05-09T10:40:31.344Z,1256.00
2024-05-09T10:41:26.878Z,1303.00
2024-05-09T10:42:26.883Z,1382.00
2024-05-09T10:43:26.864Z,1378.00
2024-05-09T10:44:26.862Z,3580.00
2024-05-09T10:45:26.798Z,1890.00
2024-05-09T10:46:26.841Z,1502.00
2024-05-09T10:47:26.867Z,1396.00
2024-05-09T10:48:26.936Z,1343.00
2024-05-09T10:49:26.844Z,1360.00
2024-05-09T10:50:31.810Z,1405.00
2024-05-09T10:51:26.735Z,1449.00
2024-05-09T10:52:26.831Z,1470.00
2024-05-09T10:53:26.736Z,1285.00
2024-05-09T10:54:26.707Z,1191.00
2024-05-09T10:55:26.749Z,1400.00
2024-05-09T10:56:26.744Z,1462.00
2024-05-09T10:57:26.676Z,741.00
2024-05-09T10:58:26.684Z,1418.00
2024-05-09T10:59:26.701Z,1632.00
2024-05-09T11:00:30.729Z,1741.00
2024-05-09T11:01:26.736Z,1706.00
2024-05-09T11:02:26.752Z,1723.00
2024-05-09T11:03:26.753Z,1728.00
2024-05-09T11:04:26.696Z,1731.00
2024-05-09T11:05:26.633Z,1797.00
2024-05-09T11:06:26.592Z,1776.00
2024-05-09T11:07:26.663Z,1757.00
2024-05-09T11:08:26.559Z,3839.00
2024-05-09T11:09:26.567Z,901.00
2024-05-09T11:10:33.524Z,1820.00
2024-05-09T11:11:26.580Z,2039.00
2024-05-09T11:12:26.531Z,1700.00
2024-05-09T11:13:26.495Z,1966.00
2024-05-09T11:14:26.515Z,1949.00
2024-05-09T11:15:26.503Z,1826.00
2024-05-09T11:16:26.551Z,1632.00
2024-05-09T11:17:26.638Z,1544.00
2024-05-09T11:18:28.139Z,1494.00
2024-05-09T11:19:26.561Z,1441.00
2024-05-09T11:20:29.660Z,1325.00
2024-05-09T11:21:26.445Z,1325.00
2024-05-09T11:22:26.443Z,1275.00
2024-05-09T11:23:26.385Z,1327.00
2024-05-09T11:24:26.417Z,1459.00
2024-05-09T11:25:26.417Z,1626.00
2024-05-09T11:26:26.362Z,1715.00
2024-05-09T11:27:26.395Z,1803.00
2024-05-09T11:28:26.415Z,1820.00
2024-05-09T11:29:26.345Z,1843.00
2024-05-09T11:30:31.613Z,1775.00
2024-05-09T11:31:26.493Z,1787.00
2024-05-09T11:32:26.473Z,1809.00
2024-05-09T11:33:26.416Z,1786.00
2024-05-09T11:34:26.410Z,1714.00
2024-05-09T11:35:26.280Z,1508.00
2024-05-09T11:36:26.276Z,1534.00
2024-05-09T11:37:26.337Z,1477.00
2024-05-09T11:38:26.254Z,1387.00
2024-05-09T11:39:26.311Z,1378.00
2024-05-09T11:40:32.331Z,1376.00
2024-05-09T11:41:26.215Z,1331.00
2024-05-09T11:42:26.313Z,1344.00
2024-05-09T11:43:26.226Z,1378.00
2024-05-09T11:44:26.172Z,1418.00
2024-05-09T11:45:26.166Z,1444.00
2024-05-09T11:46:26.449Z,1516.00
2024-05-09T11:47:26.271Z,1639.00
2024-05-09T11:48:26.645Z,1702.00
2024-05-09T11:49:27.156Z,1713.00
2024-05-09T11:50:30.136Z,1742.00
2024-05-09T11:51:26.198Z,1809.00
2024-05-09T11:52:26.141Z,1776.00
2024-05-09T11:53:26.131Z,1835.00
2024-05-09T11:54:26.092Z,1912.00
2024-05-09T11:55:28.154Z,3865.00
2024-05-09T11:56:26.058Z,1712.00
2024-05-09T11:57:26.075Z,1979.00
2024-05-09T11:58:26.117Z,734.00
2024-05-09T11:59:26.003Z,1438.00
2024-05-09T12:00:33.985Z,1459.00
2024-05-09T12:01:27.928Z,3392.00
2024-05-09T12:02:26.136Z,632.00
2024-05-09T12:03:26.003Z,822.00
2024-05-09T12:04:26.159Z,1252.00
2024-05-09T12:05:26.232Z,1215.00
2024-05-09T12:06:26.019Z,1191.00
2024-05-09T12:07:25.972Z,1280.00
2024-05-09T12:08:25.984Z,1376.00
2024-05-09T12:09:25.924Z,1464.00
2024-05-09T12:10:32.317Z,1528.00
2024-05-09T12:11:25.935Z,1468.00
2024-05-09T12:12:25.978Z,1444.00
2024-05-09T12:13:26.046Z,1364.00
2024-05-09T12:14:25.983Z,1683.00
2024-05-09T12:15:25.861Z,931.00
2024-05-09T12:16:26.739Z,1458.00
2024-05-09T12:17:25.926Z,1598.00
2024-05-09T12:18:25.906Z,1542.00
2024-05-09T12:19:25.884Z,1544.00
2024-05-09T12:20:33.162Z,1632.00
2024-05-09T12:21:26.637Z,1656.00
2024-05-09T12:22:25.851Z,1647.00
2024-05-09T12:23:25.859Z,1661.00
2024-05-09T12:24:25.786Z,2977.00
2024-05-09T12:25:25.758Z,833.00
2024-05-09T12:26:25.745Z,3029.00
2024-05-09T12:27:25.810Z,1960.00
2024-05-09T12:28:25.760Z,1376.00
2024-05-09T12:29:25.727Z,837.00
2024-05-09T12:30:34.852Z,2339.00
2024-05-09T12:32:36.810Z,1492.00
2024-05-09T12:33:37.792Z,728.00
2024-05-09T12:34:37.922Z,3070.00
2024-05-09T12:35:37.736Z,671.00
2024-05-09T12:36:37.694Z,1052.00
2024-05-09T12:37:37.653Z,1585.00
2024-05-09T12:38:37.621Z,1615.00
2024-05-09T12:39:37.636Z,1619.00
2024-05-09T12:40:39.100Z,1694.00
2024-05-09T12:41:37.580Z,1707.00
2024-05-09T12:42:37.637Z,1645.00
2024-05-09T12:43:37.638Z,1652.00
2024-05-09T12:44:37.582Z,1715.00
2024-05-09T12:45:38.132Z,3318.00
2024-05-09T12:46:37.611Z,2283.00